Terminal Aerodrome Forecast
Issued by NWS

Home | Current Version | Previous Version | Text Only | Print | Product List | Glossary On
Versions: 1 2 3 4 5 6 7 8 9 10 11 12 13 14 15 16
000
FTUS42 TJSJ 230856 AAD
TAFIST
TAF AMD
TIST 230856Z 2309/2406 11008KT P6SM VCSH SCT022 BKN040 OVC100
      TEMPO 2309/2310 2SM +RA BR BKN015 BKN025 OVC030
     FM231300 14012KT P6SM VCSH FEW025 SCT035 SCT070
     FM232300 10007KT P6SM VCSH SCT030 SCT060=

USA.gov is the U.S. government's official web portal to all federal, state and local government web resources and services.